sensor_id;sensor_type;location;lat;lon;timestamp;P1;durP1;ratioP1;P2;durP2;ratioP2
21636;SDS011;10980;49.596;6.142;2023-02-18T00:00:25;9.35;;;5.85;;
21636;SDS011;10980;49.596;6.142;2023-02-18T00:03:49;9.60;;;5.55;;
21636;SDS011;10980;49.596;6.142;2023-02-18T00:07:11;8.90;;;5.53;;
21636;SDS011;10980;49.596;6.142;2023-02-18T00:10:35;10.57;;;5.63;;
21636;SDS011;10980;49.596;6.142;2023-02-18T00:14:02;7.72;;;5.35;;
21636;SDS011;10980;49.596;6.142;2023-02-18T00:17:36;9.13;;;5.57;;
21636;SDS011;10980;49.596;6.142;2023-02-18T00:21:02;9.93;;;5.68;;
21636;SDS011;10980;49.596;6.142;2023-02-18T00:24:26;9.15;;;5.75;;
21636;SDS011;10980;49.596;6.142;2023-02-18T00:27:49;7.72;;;5.30;;
21636;SDS011;10980;49.596;6.142;2023-02-18T00:31:13;7.95;;;4.85;;
21636;SDS011;10980;49.596;6.142;2023-02-18T00:34:48;7.30;;;4.20;;
21636;SDS011;10980;49.596;6.142;2023-02-18T00:38:10;8.30;;;4.72;;
21636;SDS011;10980;49.596;6.142;2023-02-18T00:41:32;7.37;;;4.40;;
21636;SDS011;10980;49.596;6.142;2023-02-18T00:44:56;6.18;;;3.88;;
21636;SDS011;10980;49.596;6.142;2023-02-18T00:48:18;6.32;;;3.80;;
21636;SDS011;10980;49.596;6.142;2023-02-18T00:51:41;6.85;;;3.75;;
21636;SDS011;10980;49.596;6.142;2023-02-18T00:55:04;6.72;;;4.05;;
21636;SDS011;10980;49.596;6.142;2023-02-18T00:58:27;8.35;;;4.43;;
21636;SDS011;10980;49.596;6.142;2023-02-18T01:01:49;7.10;;;4.63;;
21636;SDS011;10980;49.596;6.142;2023-02-18T01:05:11;5.80;;;3.63;;
21636;SDS011;10980;49.596;6.142;2023-02-18T01:08:34;6.20;;;4.53;;
21636;SDS011;10980;49.596;6.142;2023-02-18T01:11:58;6.33;;;3.77;;
21636;SDS011;10980;49.596;6.142;2023-02-18T01:15:20;6.00;;;3.80;;
21636;SDS011;10980;49.596;6.142;2023-02-18T01:18:44;6.03;;;3.55;;
21636;SDS011;10980;49.596;6.142;2023-02-18T01:22:07;7.03;;;3.30;;
21636;SDS011;10980;49.596;6.142;2023-02-18T01:25:36;5.33;;;3.63;;
21636;SDS011;10980;49.596;6.142;2023-02-18T01:28:58;5.75;;;2.90;;
21636;SDS011;10980;49.596;6.142;2023-02-18T01:32:20;5.47;;;3.37;;
21636;SDS011;10980;49.596;6.142;2023-02-18T01:35:43;4.67;;;3.00;;
21636;SDS011;10980;49.596;6.142;2023-02-18T01:39:05;5.83;;;3.27;;
21636;SDS011;10980;49.596;6.142;2023-02-18T01:42:28;5.45;;;2.83;;
21636;SDS011;10980;49.596;6.142;2023-02-18T01:49:50;3.63;;;2.50;;
21636;SDS011;10980;49.596;6.142;2023-02-18T01:53:16;3.10;;;2.35;;
21636;SDS011;10980;49.596;6.142;2023-02-18T01:57:10;3.78;;;2.20;;
21636;SDS011;10980;49.596;6.142;2023-02-18T02:00:35;3.13;;;2.13;;
21636;SDS011;10980;49.596;6.142;2023-02-18T02:03:59;3.03;;;2.05;;
21636;SDS011;10980;49.596;6.142;2023-02-18T02:07:24;5.35;;;2.38;;
21636;SDS011;10980;49.596;6.142;2023-02-18T02:15:20;3.80;;;2.10;;
21636;SDS011;10980;49.596;6.142;2023-02-18T02:19:18;2.80;;;1.87;;
21636;SDS011;10980;49.596;6.142;2023-02-18T02:38:28;5.40;;;3.60;;
21636;SDS011;10980;49.596;6.142;2023-02-18T02:42:24;5.18;;;3.33;;
21636;SDS011;10980;49.596;6.142;2023-02-18T02:46:05;6.00;;;4.15;;
21636;SDS011;10980;49.596;6.142;2023-02-18T02:53:22;6.47;;;4.43;;
21636;SDS011;10980;49.596;6.142;2023-02-18T02:56:49;6.55;;;4.78;;
21636;SDS011;10980;49.596;6.142;2023-02-18T03:00:40;6.18;;;4.10;;
21636;SDS011;10980;49.596;6.142;2023-02-18T03:04:41;4.25;;;2.60;;
21636;SDS011;10980;49.596;6.142;2023-02-18T03:12:33;5.47;;;2.83;;
21636;SDS011;10980;49.596;6.142;2023-02-18T03:19:46;4.18;;;2.90;;
21636;SDS011;10980;49.596;6.142;2023-02-18T03:23:33;4.30;;;3.00;;
21636;SDS011;10980;49.596;6.142;2023-02-18T03:30:56;5.85;;;3.70;;
21636;SDS011;10980;49.596;6.142;2023-02-18T03:34:32;5.27;;;3.63;;
21636;SDS011;10980;49.596;6.142;2023-02-18T03:38:04;6.83;;;3.80;;
21636;SDS011;10980;49.596;6.142;2023-02-18T03:41:44;8.23;;;4.13;;
21636;SDS011;10980;49.596;6.142;2023-02-18T03:45:06;5.47;;;3.80;;
21636;SDS011;10980;49.596;6.142;2023-02-18T03:48:28;9.13;;;4.17;;
21636;SDS011;10980;49.596;6.142;2023-02-18T03:51:50;6.22;;;3.50;;
21636;SDS011;10980;49.596;6.142;2023-02-18T03:55:12;5.88;;;3.72;;
21636;SDS011;10980;49.596;6.142;2023-02-18T03:58:34;6.30;;;3.73;;
21636;SDS011;10980;49.596;6.142;2023-02-18T04:01:56;10.57;;;4.43;;
21636;SDS011;10980;49.596;6.142;2023-02-18T04:05:19;6.40;;;3.90;;
21636;SDS011;10980;49.596;6.142;2023-02-18T04:08:41;9.10;;;4.07;;
21636;SDS011;10980;49.596;6.142;2023-02-18T04:12:03;5.63;;;4.00;;
21636;SDS011;10980;49.596;6.142;2023-02-18T04:15:34;5.53;;;3.97;;
21636;SDS011;10980;49.596;6.142;2023-02-18T04:18:58;6.03;;;3.73;;
21636;SDS011;10980;49.596;6.142;2023-02-18T04:22:26;4.63;;;3.33;;
21636;SDS011;10980;49.596;6.142;2023-02-18T04:25:51;5.10;;;3.80;;
21636;SDS011;10980;49.596;6.142;2023-02-18T04:29:13;6.47;;;3.63;;
21636;SDS011;10980;49.596;6.142;2023-02-18T04:32:37;7.32;;;3.75;;
21636;SDS011;10980;49.596;6.142;2023-02-18T04:35:59;5.53;;;3.67;;
21636;SDS011;10980;49.596;6.142;2023-02-18T04:39:20;5.93;;;4.23;;
21636;SDS011;10980;49.596;6.142;2023-02-18T04:42:42;5.85;;;4.30;;
21636;SDS011;10980;49.596;6.142;2023-02-18T04:46:05;6.13;;;4.27;;
21636;SDS011;10980;49.596;6.142;2023-02-18T04:49:28;5.40;;;3.70;;
21636;SDS011;10980;49.596;6.142;2023-02-18T04:52:49;6.97;;;4.28;;
21636;SDS011;10980;49.596;6.142;2023-02-18T04:56:13;6.85;;;4.00;;
21636;SDS011;10980;49.596;6.142;2023-02-18T04:59:35;8.18;;;4.30;;
21636;SDS011;10980;49.596;6.142;2023-02-18T05:02:57;9.07;;;5.03;;
21636;SDS011;10980;49.596;6.142;2023-02-18T05:06:19;6.07;;;4.10;;
21636;SDS011;10980;49.596;6.142;2023-02-18T05:09:40;6.82;;;4.57;;
21636;SDS011;10980;49.596;6.142;2023-02-18T05:13:02;8.35;;;4.28;;
21636;SDS011;10980;49.596;6.142;2023-02-18T05:16:35;8.23;;;5.13;;
21636;SDS011;10980;49.596;6.142;2023-02-18T05:19:57;9.27;;;5.07;;
21636;SDS011;10980;49.596;6.142;2023-02-18T05:23:19;9.00;;;4.93;;
21636;SDS011;10980;49.596;6.142;2023-02-18T05:26:41;7.40;;;4.78;;
21636;SDS011;10980;49.596;6.142;2023-02-18T05:30:03;10.80;;;5.28;;
21636;SDS011;10980;49.596;6.142;2023-02-18T05:33:26;9.27;;;5.38;;
21636;SDS011;10980;49.596;6.142;2023-02-18T05:36:55;8.63;;;5.10;;
21636;SDS011;10980;49.596;6.142;2023-02-18T05:40:16;8.20;;;5.57;;
21636;SDS011;10980;49.596;6.142;2023-02-18T05:43:38;8.47;;;5.43;;
21636;SDS011;10980;49.596;6.142;2023-02-18T05:47:20;7.47;;;5.10;;
21636;SDS011;10980;49.596;6.142;2023-02-18T05:50:42;8.00;;;5.28;;
21636;SDS011;10980;49.596;6.142;2023-02-18T05:54:05;11.80;;;5.37;;
21636;SDS011;10980;49.596;6.142;2023-02-18T05:57:27;8.67;;;4.87;;
21636;SDS011;10980;49.596;6.142;2023-02-18T06:00:48;8.27;;;5.13;;
21636;SDS011;10980;49.596;6.142;2023-02-18T06:04:10;7.27;;;4.17;;
21636;SDS011;10980;49.596;6.142;2023-02-18T06:07:33;8.13;;;4.40;;
21636;SDS011;10980;49.596;6.142;2023-02-18T06:10:55;5.77;;;4.00;;
21636;SDS011;10980;49.596;6.142;2023-02-18T06:14:20;6.23;;;4.00;;
21636;SDS011;10980;49.596;6.142;2023-02-18T06:17:42;8.10;;;4.13;;
21636;SDS011;10980;49.596;6.142;2023-02-18T06:21:04;5.63;;;3.60;;
21636;SDS011;10980;49.596;6.142;2023-02-18T06:24:27;9.30;;;3.97;;
21636;SDS011;10980;49.596;6.142;2023-02-18T06:27:48;4.57;;;3.10;;
21636;SDS011;10980;49.596;6.142;2023-02-18T06:31:11;4.97;;;3.27;;
21636;SDS011;10980;49.596;6.142;2023-02-18T06:34:34;8.10;;;3.40;;
21636;SDS011;10980;49.596;6.142;2023-02-18T06:37:55;5.87;;;2.77;;
21636;SDS011;10980;49.596;6.142;2023-02-18T06:41:17;4.67;;;2.30;;
21636;SDS011;10980;49.596;6.142;2023-02-18T06:44:41;7.47;;;2.37;;
21636;SDS011;10980;49.596;6.142;2023-02-18T06:48:03;3.57;;;2.40;;
21636;SDS011;10980;49.596;6.142;2023-02-18T06:51:25;3.40;;;2.10;;
21636;SDS011;10980;49.596;6.142;2023-02-18T06:54:47;6.60;;;2.60;;
21636;SDS011;10980;49.596;6.142;2023-02-18T06:58:09;3.47;;;2.50;;
21636;SDS011;10980;49.596;6.142;2023-02-18T07:01:33;5.17;;;2.40;;
21636;SDS011;10980;49.596;6.142;2023-02-18T07:04:57;7.53;;;2.80;;
21636;SDS011;10980;49.596;6.142;2023-02-18T07:08:19;4.30;;;2.30;;
21636;SDS011;10980;49.596;6.142;2023-02-18T07:11:41;7.07;;;2.97;;
21636;SDS011;10980;49.596;6.142;2023-02-18T07:15:03;6.83;;;2.53;;
21636;SDS011;10980;49.596;6.142;2023-02-18T07:18:26;5.07;;;2.60;;
21636;SDS011;10980;49.596;6.142;2023-02-18T07:21:47;3.97;;;2.53;;
21636;SDS011;10980;49.596;6.142;2023-02-18T07:25:16;5.18;;;2.63;;
21636;SDS011;10980;49.596;6.142;2023-02-18T07:28:39;6.80;;;2.40;;
21636;SDS011;10980;49.596;6.142;2023-02-18T07:32:02;5.23;;;2.80;;
21636;SDS011;10980;49.596;6.142;2023-02-18T07:35:24;4.20;;;2.60;;
21636;SDS011;10980;49.596;6.142;2023-02-18T07:38:46;5.40;;;2.50;;
21636;SDS011;10980;49.596;6.142;2023-02-18T07:42:08;6.90;;;2.70;;
21636;SDS011;10980;49.596;6.142;2023-02-18T07:45:31;5.20;;;2.92;;
21636;SDS011;10980;49.596;6.142;2023-02-18T07:48:53;6.37;;;2.57;;
21636;SDS011;10980;49.596;6.142;2023-02-18T07:52:18;7.10;;;2.75;;
21636;SDS011;10980;49.596;6.142;2023-02-18T07:55:40;3.70;;;2.60;;
21636;SDS011;10980;49.596;6.142;2023-02-18T07:59:11;4.90;;;2.83;;
21636;SDS011;10980;49.596;6.142;2023-02-18T08:02:34;4.93;;;2.93;;
21636;SDS011;10980;49.596;6.142;2023-02-18T08:05:56;9.07;;;3.00;;
21636;SDS011;10980;49.596;6.142;2023-02-18T08:09:19;5.30;;;3.70;;
21636;SDS011;10980;49.596;6.142;2023-02-18T08:12:40;4.35;;;3.28;;
21636;SDS011;10980;49.596;6.142;2023-02-18T08:16:02;6.57;;;3.23;;
21636;SDS011;10980;49.596;6.142;2023-02-18T08:19:26;6.88;;;3.40;;
21636;SDS011;10980;49.596;6.142;2023-02-18T08:22:48;6.85;;;3.70;;
21636;SDS011;10980;49.596;6.142;2023-02-18T08:26:10;5.28;;;3.60;;
21636;SDS011;10980;49.596;6.142;2023-02-18T08:29:37;6.03;;;2.90;;
21636;SDS011;10980;49.596;6.142;2023-02-18T08:33:00;4.68;;;3.00;;
21636;SDS011;10980;49.596;6.142;2023-02-18T08:36:22;6.10;;;2.95;;
21636;SDS011;10980;49.596;6.142;2023-02-18T08:39:47;3.97;;;2.43;;
21636;SDS011;10980;49.596;6.142;2023-02-18T08:43:16;5.88;;;3.03;;
21636;SDS011;10980;49.596;6.142;2023-02-18T08:46:44;10.98;;;3.45;;
21636;SDS011;10980;49.596;6.142;2023-02-18T08:50:08;4.25;;;2.30;;
21636;SDS011;10980;49.596;6.142;2023-02-18T08:53:31;5.00;;;1.60;;
21636;SDS011;10980;49.596;6.142;2023-02-18T08:56:54;2.88;;;1.90;;
21636;SDS011;10980;49.596;6.142;2023-02-18T09:00:21;4.43;;;1.67;;
21636;SDS011;10980;49.596;6.142;2023-02-18T09:03:46;2.72;;;1.58;;
21636;SDS011;10980;49.596;6.142;2023-02-18T09:07:15;2.22;;;1.40;;
21636;SDS011;10980;49.596;6.142;2023-02-18T09:10:42;5.05;;;1.80;;
21636;SDS011;10980;49.596;6.142;2023-02-18T09:14:07;5.75;;;2.22;;
21636;SDS011;10980;49.596;6.142;2023-02-18T09:17:32;4.95;;;2.10;;
21636;SDS011;10980;49.596;6.142;2023-02-18T09:21:05;4.53;;;1.85;;
21636;SDS011;10980;49.596;6.142;2023-02-18T09:24:35;6.32;;;2.03;;
21636;SDS011;10980;49.596;6.142;2023-02-18T09:28:03;3.75;;;2.08;;
21636;SDS011;10980;49.596;6.142;2023-02-18T09:31:26;4.78;;;1.80;;
21636;SDS011;10980;49.596;6.142;2023-02-18T09:34:57;4.85;;;2.17;;
21636;SDS011;10980;49.596;6.142;2023-02-18T09:38:19;11.15;;;1.90;;
21636;SDS011;10980;49.596;6.142;2023-02-18T09:45:13;3.63;;;1.67;;
21636;SDS011;10980;49.596;6.142;2023-02-18T09:48:36;3.67;;;1.80;;
21636;SDS011;10980;49.596;6.142;2023-02-18T09:52:05;5.07;;;2.15;;
21636;SDS011;10980;49.596;6.142;2023-02-18T09:55:36;5.47;;;1.95;;
21636;SDS011;10980;49.596;6.142;2023-02-18T09:59:02;6.50;;;2.22;;
21636;SDS011;10980;49.596;6.142;2023-02-18T10:02:34;9.50;;;2.10;;
21636;SDS011;10980;49.596;6.142;2023-02-18T10:09:42;25.77;;;4.20;;
21636;SDS011;10980;49.596;6.142;2023-02-18T10:13:16;10.55;;;2.85;;
21636;SDS011;10980;49.596;6.142;2023-02-18T10:16:47;14.77;;;3.00;;
21636;SDS011;10980;49.596;6.142;2023-02-18T10:20:14;11.18;;;2.58;;
21636;SDS011;10980;49.596;6.142;2023-02-18T10:27:31;6.25;;;2.50;;
21636;SDS011;10980;49.596;6.142;2023-02-18T10:31:11;5.97;;;2.35;;
21636;SDS011;10980;49.596;6.142;2023-02-18T10:35:13;6.07;;;2.17;;
21636;SDS011;10980;49.596;6.142;2023-02-18T10:39:14;6.95;;;2.25;;
21636;SDS011;10980;49.596;6.142;2023-02-18T10:43:42;4.75;;;1.77;;
21636;SDS011;10980;49.596;6.142;2023-02-18T10:48:04;5.90;;;2.30;;
21636;SDS011;10980;49.596;6.142;2023-02-18T10:52:05;5.53;;;1.80;;
21636;SDS011;10980;49.596;6.142;2023-02-18T10:55:40;3.22;;;1.67;;
21636;SDS011;10980;49.596;6.142;2023-02-18T11:02:32;9.95;;;2.17;;
21636;SDS011;10980;49.596;6.142;2023-02-18T11:05:54;6.50;;;1.90;;
21636;SDS011;10980;49.596;6.142;2023-02-18T11:13:14;6.10;;;1.60;;
21636;SDS011;10980;49.596;6.142;2023-02-18T11:16:46;5.78;;;1.75;;
21636;SDS011;10980;49.596;6.142;2023-02-18T11:20:20;2.92;;;1.65;;
21636;SDS011;10980;49.596;6.142;2023-02-18T11:23:57;3.15;;;1.67;;
21636;SDS011;10980;49.596;6.142;2023-02-18T11:27:45;10.95;;;2.42;;
21636;SDS011;10980;49.596;6.142;2023-02-18T11:31:24;5.05;;;1.65;;
21636;SDS011;10980;49.596;6.142;2023-02-18T11:34:57;7.22;;;2.13;;
21636;SDS011;10980;49.596;6.142;2023-02-18T11:42:18;3.55;;;1.58;;
21636;SDS011;10980;49.596;6.142;2023-02-18T11:45:46;6.68;;;1.65;;
21636;SDS011;10980;49.596;6.142;2023-02-18T11:49:26;4.85;;;1.40;;
21636;SDS011;10980;49.596;6.142;2023-02-18T11:52:50;2.10;;;1.17;;
21636;SDS011;10980;49.596;6.142;2023-02-18T11:56:24;6.68;;;1.58;;
21636;SDS011;10980;49.596;6.142;2023-02-18T11:59:51;4.70;;;1.70;;
21636;SDS011;10980;49.596;6.142;2023-02-18T12:07:25;6.43;;;1.77;;
21636;SDS011;10980;49.596;6.142;2023-02-18T12:11:45;5.97;;;1.65;;
21636;SDS011;10980;49.596;6.142;2023-02-18T12:14:54;8.73;;;1.30;;
21636;SDS011;10980;49.596;6.142;2023-02-18T12:18:32;6.15;;;1.70;;
21636;SDS011;10980;49.596;6.142;2023-02-18T12:22:21;2.97;;;1.40;;
21636;SDS011;10980;49.596;6.142;2023-02-18T12:33:32;8.40;;;1.80;;
21636;SDS011;10980;49.596;6.142;2023-02-18T13:04:27;8.93;;;2.00;;
21636;SDS011;10980;49.596;6.142;2023-02-18T13:16:24;8.95;;;2.30;;
21636;SDS011;10980;49.596;6.142;2023-02-18T13:19:52;7.20;;;2.75;;
21636;SDS011;10980;49.596;6.142;2023-02-18T13:23:48;4.47;;;2.63;;
21636;SDS011;10980;49.596;6.142;2023-02-18T13:35:22;5.95;;;3.55;;
21636;SDS011;10980;49.596;6.142;2023-02-18T13:39:09;5.68;;;2.55;;
21636;SDS011;10980;49.596;6.142;2023-02-18T13:46:14;6.50;;;2.30;;
21636;SDS011;10980;49.596;6.142;2023-02-18T13:49:45;7.25;;;3.03;;
21636;SDS011;10980;49.596;6.142;2023-02-18T13:53:18;10.73;;;2.95;;
21636;SDS011;10980;49.596;6.142;2023-02-18T14:00:36;6.63;;;2.60;;
21636;SDS011;10980;49.596;6.142;2023-02-18T14:12:15;6.32;;;2.65;;
21636;SDS011;10980;49.596;6.142;2023-02-18T14:15:58;10.63;;;2.88;;
21636;SDS011;10980;49.596;6.142;2023-02-18T14:19:28;7.65;;;2.53;;
21636;SDS011;10980;49.596;6.142;2023-02-18T14:22:51;4.38;;;2.17;;
21636;SDS011;10980;49.596;6.142;2023-02-18T14:29:35;6.53;;;2.63;;
21636;SDS011;10980;49.596;6.142;2023-02-18T14:32:58;12.25;;;2.38;;
21636;SDS011;10980;49.596;6.142;2023-02-18T14:41:03;10.05;;;2.78;;
21636;SDS011;10980;49.596;6.142;2023-02-18T14:47:48;8.65;;;2.88;;
21636;SDS011;10980;49.596;6.142;2023-02-18T14:51:20;7.60;;;2.40;;
21636;SDS011;10980;49.596;6.142;2023-02-18T14:54:48;5.85;;;2.70;;
21636;SDS011;10980;49.596;6.142;2023-02-18T15:01:48;10.38;;;2.67;;
21636;SDS011;10980;49.596;6.142;2023-02-18T15:05:20;4.55;;;2.47;;
21636;SDS011;10980;49.596;6.142;2023-02-18T15:08:47;5.70;;;1.95;;
21636;SDS011;10980;49.596;6.142;2023-02-18T15:12:11;9.25;;;2.70;;
21636;SDS011;10980;49.596;6.142;2023-02-18T15:15:47;6.35;;;2.20;;
21636;SDS011;10980;49.596;6.142;2023-02-18T15:19:27;6.63;;;2.40;;
21636;SDS011;10980;49.596;6.142;2023-02-18T15:23:00;12.13;;;2.70;;
21636;SDS011;10980;49.596;6.142;2023-02-18T15:26:22;7.68;;;2.70;;
21636;SDS011;10980;49.596;6.142;2023-02-18T15:29:48;6.03;;;2.63;;
21636;SDS011;10980;49.596;6.142;2023-02-18T15:33:20;6.45;;;2.92;;
21636;SDS011;10980;49.596;6.142;2023-02-18T15:36:48;12.02;;;3.08;;
21636;SDS011;10980;49.596;6.142;2023-02-18T15:40:13;4.53;;;2.60;;
21636;SDS011;10980;49.596;6.142;2023-02-18T15:44:01;10.23;;;3.55;;
21636;SDS011;10980;49.596;6.142;2023-02-18T15:47:27;10.65;;;2.92;;
21636;SDS011;10980;49.596;6.142;2023-02-18T15:50:52;7.38;;;3.00;;
21636;SDS011;10980;49.596;6.142;2023-02-18T15:54:28;15.43;;;3.10;;
21636;SDS011;10980;49.596;6.142;2023-02-18T15:57:53;4.70;;;2.97;;
21636;SDS011;10980;49.596;6.142;2023-02-18T16:01:28;7.78;;;3.50;;
21636;SDS011;10980;49.596;6.142;2023-02-18T16:04:54;5.55;;;3.55;;
21636;SDS011;10980;49.596;6.142;2023-02-18T16:08:24;9.38;;;3.25;;
21636;SDS011;10980;49.596;6.142;2023-02-18T16:11:49;10.77;;;3.83;;
21636;SDS011;10980;49.596;6.142;2023-02-18T16:15:23;11.25;;;4.65;;
21636;SDS011;10980;49.596;6.142;2023-02-18T16:18:50;11.32;;;3.75;;
21636;SDS011;10980;49.596;6.142;2023-02-18T16:22:18;6.67;;;4.40;;
21636;SDS011;10980;49.596;6.142;2023-02-18T16:26:07;13.23;;;4.43;;
21636;SDS011;10980;49.596;6.142;2023-02-18T16:29:45;16.10;;;4.68;;
21636;SDS011;10980;49.596;6.142;2023-02-18T16:33:11;12.63;;;4.93;;
21636;SDS011;10980;49.596;6.142;2023-02-18T16:36:33;15.00;;;4.80;;
21636;SDS011;10980;49.596;6.142;2023-02-18T16:39:55;15.63;;;5.33;;
21636;SDS011;10980;49.596;6.142;2023-02-18T16:43:20;26.47;;;21.20;;
21636;SDS011;10980;49.596;6.142;2023-02-18T16:46:46;458.47;;;423.77;;
21636;SDS011;10980;49.596;6.142;2023-02-18T16:50:13;689.90;;;627.97;;
21636;SDS011;10980;49.596;6.142;2023-02-18T16:53:42;997.50;;;802.23;;
21636;SDS011;10980;49.596;6.142;2023-02-18T16:57:05;465.07;;;350.00;;
21636;SDS011;10980;49.596;6.142;2023-02-18T17:00:27;54.80;;;36.47;;
21636;SDS011;10980;49.596;6.142;2023-02-18T17:03:50;11.57;;;5.90;;
21636;SDS011;10980;49.596;6.142;2023-02-18T17:07:12;12.33;;;6.40;;
21636;SDS011;10980;49.596;6.142;2023-02-18T17:10:35;10.73;;;6.07;;
21636;SDS011;10980;49.596;6.142;2023-02-18T17:13:57;10.50;;;5.83;;
21636;SDS011;10980;49.596;6.142;2023-02-18T17:17:21;13.17;;;6.40;;
21636;SDS011;10980;49.596;6.142;2023-02-18T17:20:43;12.73;;;6.70;;
21636;SDS011;10980;49.596;6.142;2023-02-18T17:24:16;12.37;;;6.47;;
21636;SDS011;10980;49.596;6.142;2023-02-18T17:27:39;12.95;;;5.95;;
21636;SDS011;10980;49.596;6.142;2023-02-18T17:31:01;13.33;;;6.13;;
21636;SDS011;10980;49.596;6.142;2023-02-18T17:34:26;15.13;;;7.40;;
21636;SDS011;10980;49.596;6.142;2023-02-18T17:37:51;13.20;;;6.47;;
21636;SDS011;10980;49.596;6.142;2023-02-18T17:41:13;16.75;;;7.55;;
21636;SDS011;10980;49.596;6.142;2023-02-18T17:44:36;13.93;;;6.53;;
21636;SDS011;10980;49.596;6.142;2023-02-18T17:48:01;11.00;;;5.97;;
21636;SDS011;10980;49.596;6.142;2023-02-18T17:51:25;13.20;;;6.00;;
21636;SDS011;10980;49.596;6.142;2023-02-18T17:54:51;11.50;;;6.70;;
21636;SDS011;10980;49.596;6.142;2023-02-18T17:58:15;14.77;;;5.88;;
21636;SDS011;10980;49.596;6.142;2023-02-18T18:01:39;10.07;;;6.03;;
21636;SDS011;10980;49.596;6.142;2023-02-18T18:05:02;12.43;;;5.43;;
21636;SDS011;10980;49.596;6.142;2023-02-18T18:08:24;12.30;;;5.75;;
21636;SDS011;10980;49.596;6.142;2023-02-18T18:11:47;9.43;;;5.32;;
21636;SDS011;10980;49.596;6.142;2023-02-18T18:19:00;9.93;;;5.40;;
21636;SDS011;10980;49.596;6.142;2023-02-18T18:22:22;13.38;;;6.53;;
21636;SDS011;10980;49.596;6.142;2023-02-18T18:25:56;10.63;;;5.55;;
21636;SDS011;10980;49.596;6.142;2023-02-18T18:29:21;11.20;;;5.40;;
21636;SDS011;10980;49.596;6.142;2023-02-18T18:32:43;9.80;;;5.33;;
21636;SDS011;10980;49.596;6.142;2023-02-18T18:36:05;12.17;;;5.50;;
21636;SDS011;10980;49.596;6.142;2023-02-18T18:39:33;10.23;;;5.23;;
21636;SDS011;10980;49.596;6.142;2023-02-18T18:42:56;9.10;;;5.37;;
21636;SDS011;10980;49.596;6.142;2023-02-18T18:46:21;13.80;;;6.13;;
21636;SDS011;10980;49.596;6.142;2023-02-18T18:49:43;157.00;;;74.30;;
21636;SDS011;10980;49.596;6.142;2023-02-18T18:53:05;16.57;;;7.47;;
21636;SDS011;10980;49.596;6.142;2023-02-18T18:56:36;23.47;;;11.97;;
21636;SDS011;10980;49.596;6.142;2023-02-18T19:00:00;8.70;;;5.83;;
21636;SDS011;10980;49.596;6.142;2023-02-18T19:03:23;9.47;;;5.53;;
21636;SDS011;10980;49.596;6.142;2023-02-18T19:06:54;8.20;;;5.50;;
21636;SDS011;10980;49.596;6.142;2023-02-18T19:10:17;11.10;;;5.67;;
21636;SDS011;10980;49.596;6.142;2023-02-18T19:17:08;10.27;;;5.50;;
21636;SDS011;10980;49.596;6.142;2023-02-18T19:20:32;9.40;;;5.37;;
21636;SDS011;10980;49.596;6.142;2023-02-18T19:23:56;13.70;;;5.80;;
21636;SDS011;10980;49.596;6.142;2023-02-18T19:27:24;10.73;;;5.90;;
21636;SDS011;10980;49.596;6.142;2023-02-18T19:30:48;11.15;;;5.57;;
21636;SDS011;10980;49.596;6.142;2023-02-18T19:34:11;10.77;;;6.00;;
21636;SDS011;10980;49.596;6.142;2023-02-18T19:37:35;14.50;;;7.70;;
21636;SDS011;10980;49.596;6.142;2023-02-18T19:41:11;67.23;;;28.87;;
21636;SDS011;10980;49.596;6.142;2023-02-18T19:44:40;17.30;;;9.60;;
21636;SDS011;10980;49.596;6.142;2023-02-18T19:48:02;10.53;;;6.40;;
21636;SDS011;10980;49.596;6.142;2023-02-18T19:51:24;9.67;;;6.93;;
21636;SDS011;10980;49.596;6.142;2023-02-18T19:54:47;14.37;;;7.03;;
21636;SDS011;10980;49.596;6.142;2023-02-18T20:01:37;9.77;;;5.87;;
21636;SDS011;10980;49.596;6.142;2023-02-18T20:05:00;28.03;;;15.83;;
21636;SDS011;10980;49.596;6.142;2023-02-18T20:08:22;23.40;;;12.73;;
21636;SDS011;10980;49.596;6.142;2023-02-18T20:11:43;39.57;;;19.83;;
21636;SDS011;10980;49.596;6.142;2023-02-18T20:15:07;45.27;;;18.00;;
21636;SDS011;10980;49.596;6.142;2023-02-18T20:18:29;40.97;;;15.80;;
21636;SDS011;10980;49.596;6.142;2023-02-18T20:21:51;69.07;;;24.70;;
21636;SDS011;10980;49.596;6.142;2023-02-18T20:25:16;64.07;;;21.83;;
21636;SDS011;10980;49.596;6.142;2023-02-18T20:28:38;47.50;;;16.73;;
21636;SDS011;10980;49.596;6.142;2023-02-18T20:32:03;135.33;;;44.40;;
21636;SDS011;10980;49.596;6.142;2023-02-18T20:35:26;70.67;;;28.40;;
21636;SDS011;10980;49.596;6.142;2023-02-18T20:38:49;22.57;;;10.43;;
21636;SDS011;10980;49.596;6.142;2023-02-18T20:42:14;62.07;;;21.20;;
21636;SDS011;10980;49.596;6.142;2023-02-18T20:45:37;46.87;;;17.10;;
21636;SDS011;10980;49.596;6.142;2023-02-18T20:49:00;22.07;;;9.60;;
21636;SDS011;10980;49.596;6.142;2023-02-18T20:52:27;19.10;;;8.70;;
21636;SDS011;10980;49.596;6.142;2023-02-18T20:55:50;13.43;;;6.20;;
21636;SDS011;10980;49.596;6.142;2023-02-18T20:59:13;8.03;;;4.70;;
21636;SDS011;10980;49.596;6.142;2023-02-18T21:02:40;7.73;;;4.37;;
21636;SDS011;10980;49.596;6.142;2023-02-18T21:06:08;7.10;;;4.47;;
21636;SDS011;10980;49.596;6.142;2023-02-18T21:09:35;6.73;;;4.50;;
21636;SDS011;10980;49.596;6.142;2023-02-18T21:13:00;9.40;;;4.83;;
21636;SDS011;10980;49.596;6.142;2023-02-18T21:16:23;6.40;;;4.53;;
21636;SDS011;10980;49.596;6.142;2023-02-18T21:19:48;8.30;;;4.83;;
21636;SDS011;10980;49.596;6.142;2023-02-18T21:23:10;8.90;;;4.50;;
21636;SDS011;10980;49.596;6.142;2023-02-18T21:26:32;8.13;;;4.77;;
21636;SDS011;10980;49.596;6.142;2023-02-18T21:29:57;9.03;;;4.10;;
21636;SDS011;10980;49.596;6.142;2023-02-18T21:33:27;10.90;;;4.90;;
21636;SDS011;10980;49.596;6.142;2023-02-18T21:36:48;10.60;;;4.40;;
21636;SDS011;10980;49.596;6.142;2023-02-18T21:40:11;8.10;;;4.20;;
21636;SDS011;10980;49.596;6.142;2023-02-18T21:43:33;7.53;;;3.93;;
21636;SDS011;10980;49.596;6.142;2023-02-18T21:50:26;6.03;;;4.20;;
21636;SDS011;10980;49.596;6.142;2023-02-18T21:53:48;9.40;;;4.20;;
21636;SDS011;10980;49.596;6.142;2023-02-18T21:57:19;7.87;;;4.27;;
21636;SDS011;10980;49.596;6.142;2023-02-18T22:00:45;6.53;;;4.23;;
21636;SDS011;10980;49.596;6.142;2023-02-18T22:04:16;5.63;;;3.67;;
21636;SDS011;10980;49.596;6.142;2023-02-18T22:07:38;8.03;;;3.60;;
21636;SDS011;10980;49.596;6.142;2023-02-18T22:11:03;7.37;;;4.63;;
21636;SDS011;10980;49.596;6.142;2023-02-18T22:18:17;5.90;;;4.50;;
21636;SDS011;10980;49.596;6.142;2023-02-18T22:21:39;7.53;;;4.43;;
21636;SDS011;10980;49.596;6.142;2023-02-18T22:25:02;8.73;;;4.73;;
21636;SDS011;10980;49.596;6.142;2023-02-18T22:28:27;8.53;;;4.60;;
21636;SDS011;10980;49.596;6.142;2023-02-18T22:35:17;8.83;;;4.53;;
21636;SDS011;10980;49.596;6.142;2023-02-18T22:38:38;8.27;;;4.80;;
21636;SDS011;10980;49.596;6.142;2023-02-18T22:42:09;8.67;;;5.57;;
21636;SDS011;10980;49.596;6.142;2023-02-18T22:45:39;10.00;;;6.47;;
21636;SDS011;10980;49.596;6.142;2023-02-18T22:49:07;11.23;;;6.50;;
21636;SDS011;10980;49.596;6.142;2023-02-18T22:56:18;9.63;;;5.30;;
21636;SDS011;10980;49.596;6.142;2023-02-18T22:59:41;9.20;;;5.60;;
21636;SDS011;10980;49.596;6.142;2023-02-18T23:03:02;10.00;;;6.23;;
21636;SDS011;10980;49.596;6.142;2023-02-18T23:06:24;14.57;;;7.53;;
21636;SDS011;10980;49.596;6.142;2023-02-18T23:09:46;13.67;;;6.90;;
21636;SDS011;10980;49.596;6.142;2023-02-18T23:13:13;11.53;;;6.77;;
21636;SDS011;10980;49.596;6.142;2023-02-18T23:16:35;12.40;;;7.23;;
21636;SDS011;10980;49.596;6.142;2023-02-18T23:20:17;12.17;;;7.00;;
21636;SDS011;10980;49.596;6.142;2023-02-18T23:23:59;10.63;;;7.17;;
21636;SDS011;10980;49.596;6.142;2023-02-18T23:31:10;11.63;;;6.97;;
21636;SDS011;10980;49.596;6.142;2023-02-18T23:34:33;9.63;;;6.10;;
21636;SDS011;10980;49.596;6.142;2023-02-18T23:37:55;10.27;;;6.80;;